Terminal Aerodrome Forecast
Issued by NWS

Home | Current Version | Previous Version | Graphics & Text | Print | Product List | Glossary On
Versions: 1 2 3 4 5 6 7 8 9 10 11 12 13 14 15 16 17 18 19 20 21 22 23 24 25 26 27 28 29
000
FTUS43 KGRB 251720
TAFRHI
TAF
KRHI 251720Z 2518/2618 22007G14KT P6SM BKN012
      TEMPO 2518/2520 -SHRA BKN007
     FM252000 23011G22KT P6SM VCSH BKN020
     FM260000 23007KT P6SM VCSH BKN015 BKN030
     FM260400 21004KT 3SM BR BKN006
     FM260800 23003KT 3/4SM BR BKN002
     FM261500 23007G13KT P6SM BKN015=

USA.gov is the U.S. government's official web portal to all federal, state and local government web resources and services.